Time;durP1;ratioP1;P1;durP2;ratioP2;P2;SDS_P1;SDS_P2;PMS_P1;PMS_P2;Temp;Humidity;BMP_temperature;BMP_pressure;BME280_temperature;BME280_humidity;BME280_pressure;Samples;Min_cycle;Max_cycle;Signal;HPM_P1;HPM_P2
2021/07/15 00:00:51;;;;;;;15.75;11.07;;;25.10;67.70;;;;;;4994500;28;20109;-72
2021/07/15 00:03:27;;;;;;;18.90;12.20;;;25.10;67.50;;;;;;4994611;28;20022;-73
2021/07/15 00:05:55;;;;;;;21.50;12.07;;;25.00;67.80;;;;;;4994461;28;20026;-72
2021/07/15 00:08:24;;;;;;;21.13;12.48;;;25.00;67.90;;;;;;4994495;28;20062;-73
2021/07/15 00:10:54;;;;;;;20.33;12.80;;;25.00;68.10;;;;;;4994327;28;20050;-73
2021/07/15 00:13:20;;;;;;;19.85;13.50;;;25.00;68.50;;;;;;4994902;28;20041;-72
2021/07/15 00:15:51;;;;;;;23.30;13.55;;;24.90;68.60;;;;;;4994282;28;20022;-72
2021/07/15 00:18:29;;;;;;;22.45;14.05;;;24.90;69.00;;;;;;4994348;28;20383;-71
2021/07/15 00:20:57;;;;;;;23.50;13.65;;;24.80;69.20;;;;;;4994260;28;20068;-71
2021/07/15 00:23:23;;;;;;;22.33;13.82;;;24.80;69.50;;;;;;4994043;28;20015;-72
2021/07/15 00:25:49;;;;;;;20.25;13.50;;;24.80;69.70;;;;;;4994163;28;20063;-72
2021/07/15 00:28:16;;;;;;;23.45;13.98;;;24.70;69.80;;;;;;4994250;28;20054;-72
2021/07/15 00:30:43;;;;;;;20.05;13.02;;;24.70;70.00;;;;;;4993968;28;20023;-72
2021/07/15 00:33:09;;;;;;;19.30;12.68;;;24.60;70.10;;;;;;4993822;28;20036;-71
2021/07/15 00:35:36;;;;;;;22.80;12.32;;;24.70;70.10;;;;;;4993775;28;20097;-72
2021/07/15 00:38:02;;;;;;;23.70;12.20;;;24.60;70.10;;;;;;4993825;28;20431;-72
2021/07/15 00:40:28;;;;;;;18.55;12.88;;;24.60;70.00;;;;;;4993838;28;20015;-72
2021/07/15 00:42:55;;;;;;;20.77;12.70;;;24.60;70.10;;;;;;4993856;28;20526;-71
2021/07/15 00:45:20;;;;;;;19.13;12.23;;;24.60;70.30;;;;;;4993777;28;20019;-72
2021/07/15 00:47:47;;;;;;;20.30;12.90;;;24.50;70.40;;;;;;4993854;28;20380;-72
2021/07/15 00:50:14;;;;;;;17.48;11.65;;;24.50;70.60;;;;;;4993576;28;20039;-72
2021/07/15 00:52:40;;;;;;;22.95;13.40;;;24.50;70.60;;;;;;4993654;28;20018;-72
2021/07/15 00:55:10;;;;;;;20.13;12.02;;;24.50;70.70;;;;;;4976205;28;20161;-72
2021/07/15 00:57:36;;;;;;;19.80;11.38;;;24.40;70.60;;;;;;4993436;28;20058;-72
2021/07/15 01:00:06;;;;;;;24.48;12.13;;;24.50;70.50;;;;;;4993579;28;20053;-72
2021/07/15 01:02:32;;;;;;;20.15;11.90;;;24.40;70.40;;;;;;4976084;28;20132;-72
2021/07/15 01:04:58;;;;;;;15.57;11.23;;;24.40;70.60;;;;;;4993314;28;20023;-72
2021/07/15 01:07:24;;;;;;;19.05;11.55;;;24.40;70.50;;;;;;4993341;28;20084;-72
2021/07/15 01:09:50;;;;;;;18.30;12.38;;;24.40;70.60;;;;;;4993328;28;20388;-73
2021/07/15 01:12:30;;;;;;;19.38;11.05;;;24.40;70.70;;;;;;4975860;28;20506;-73
2021/07/15 01:15:14;;;;;;;25.30;12.65;;;24.30;70.70;;;;;;4993594;28;20034;-72
2021/07/15 01:17:54;;;;;;;19.38;11.60;;;24.40;70.90;;;;;;4992998;28;20384;-73
2021/07/15 01:20:32;;;;;;;17.90;11.70;;;24.30;70.90;;;;;;4975783;28;20034;-72
2021/07/15 01:23:20;;;;;;;16.27;11.75;;;24.30;71.00;;;;;;4992638;28;20049;-72
2021/07/15 01:26:10;;;;;;;20.73;11.18;;;24.30;71.10;;;;;;4992979;28;20031;-71
2021/07/15 01:29:10;;;;;;;16.80;10.68;;;24.30;71.00;;;;;;4993063;28;20162;-72
2021/07/15 01:31:40;;;;;;;13.90;9.70;;;24.30;70.90;;;;;;4992915;28;20022;-72
2021/07/15 01:34:11;;;;;;;19.13;11.50;;;24.30;70.60;;;;;;4992833;28;20022;-72
2021/07/15 01:36:37;;;;;;;17.77;11.05;;;24.30;70.80;;;;;;4992795;28;20045;-72
2021/07/15 01:39:09;;;;;;;18.58;11.35;;;24.30;70.80;;;;;;4992800;28;20018;-72
2021/07/15 01:41:43;;;;;;;17.55;9.90;;;24.30;70.90;;;;;;4975145;28;20472;-73
2021/07/15 01:44:18;;;;;;;17.17;11.30;;;24.20;70.80;;;;;;4975315;28;20026;-72
2021/07/15 01:46:45;;;;;;;20.00;11.75;;;24.20;71.10;;;;;;4992545;28;20033;-72
2021/07/15 01:49:13;;;;;;;17.85;12.15;;;24.20;71.20;;;;;;4992555;28;20037;-72
2021/07/15 01:51:40;;;;;;;14.52;11.73;;;24.10;71.30;;;;;;4992460;28;20516;-72
2021/07/15 01:54:06;;;;;;;15.95;11.25;;;24.00;71.50;;;;;;4992636;28;20092;-73
2021/07/15 01:56:36;;;;;;;17.65;10.90;;;24.00;71.70;;;;;;4992335;28;20058;-72
2021/07/15 01:59:03;;;;;;;20.45;10.95;;;24.00;71.80;;;;;;4992652;28;20410;-72
2021/07/15 02:01:29;;;;;;;20.67;11.40;;;24.00;72.10;;;;;;4992722;28;20026;-72
2021/07/15 02:03:58;;;;;;;21.27;11.70;;;23.90;72.00;;;;;;4992594;28;20054;-72
2021/07/15 02:06:25;;;;;;;16.50;10.88;;;23.90;72.20;;;;;;4992537;28;20129;-72
2021/07/15 02:08:52;;;;;;;24.55;11.65;;;23.90;72.20;;;;;;4992818;28;20026;-72
2021/07/15 02:11:20;;;;;;;18.10;11.63;;;23.90;72.40;;;;;;4992613;28;20057;-72
2021/07/15 02:13:48;;;;;;;19.63;12.27;;;23.90;72.50;;;;;;4992454;28;20026;-72
2021/07/15 02:16:16;;;;;;;18.35;11.15;;;23.90;72.50;;;;;;4992361;28;20484;-72
2021/07/15 02:18:45;;;;;;;13.93;10.18;;;23.90;72.30;;;;;;4992409;28;20022;-73
2021/07/15 02:21:12;;;;;;;18.90;10.07;;;23.90;72.20;;;;;;4992321;28;20026;-72
2021/07/15 02:23:40;;;;;;;15.80;10.40;;;24.00;72.10;;;;;;4992248;28;20022;-72
2021/07/15 02:26:06;;;;;;;13.05;10.55;;;24.10;71.90;;;;;;4992362;28;20024;-72
2021/07/15 02:28:33;;;;;;;17.25;11.02;;;24.30;71.80;;;;;;4992162;28;20073;-73
2021/07/15 02:31:11;;;;;;;16.23;11.52;;;24.60;71.60;;;;;;4974963;28;20117;-72
2021/07/15 02:33:41;;;;;;;21.63;11.65;;;25.00;71.00;;;;;;4994692;28;20472;-73
2021/07/15 02:36:08;;;;;;;26.02;10.88;;;25.50;70.30;;;;;;4996312;28;20026;-73
2021/07/15 02:38:35;;;;;;;13.85;10.25;;;25.90;69.40;;;;;;4996136;28;20467;-73
2021/07/15 02:41:01;;;;;;;15.73;9.73;;;26.40;68.40;;;;;;4996236;28;20562;-72
2021/07/15 02:43:27;;;;;;;17.17;10.18;;;26.90;67.30;;;;;;5011092;28;20026;-71
2021/07/15 02:45:53;;;;;;;16.23;9.50;;;27.40;66.20;;;;;;4995956;28;20045;-71
2021/07/15 02:48:19;;;;;;;16.33;9.88;;;27.90;65.00;;;;;;4995943;28;20463;-71
2021/07/15 02:50:46;;;;;;;18.60;10.13;;;28.40;63.90;;;;;;4995657;28;20129;-70
2021/07/15 02:53:12;;;;;;;18.25;9.70;;;28.90;62.80;;;;;;4978244;28;20452;-71
2021/07/15 02:55:45;;;;;;;18.30;9.85;;;29.40;61.80;;;;;;4995624;28;20100;-71
2021/07/15 02:58:19;;;;;;;25.95;10.10;;;30.00;60.60;;;;;;4995762;28;20023;-73
2021/07/15 03:00:59;;;;;;;14.73;9.95;;;30.60;59.50;;;;;;4995598;28;20027;-72
2021/07/15 03:03:42;;;;;;;17.75;9.75;;;31.10;58.10;;;;;;4977968;28;20427;-72
2021/07/15 03:06:21;;;;;;;14.80;9.77;;;31.60;57.00;;;;;;4995511;28;20110;-71
2021/07/15 03:08:50;;;;;;;16.90;9.23;;;32.10;56.10;;;;;;4995532;28;20376;-72
2021/07/15 03:11:18;;;;;;;12.68;9.10;;;32.50;55.00;;;;;;4995301;28;20037;-72
2021/07/15 03:13:45;;;;;;;13.65;9.90;;;32.90;54.30;;;;;;5010803;28;20030;-72
2021/07/15 03:16:13;;;;;;;14.93;9.48;;;33.30;53.40;;;;;;4995681;28;20026;-72
2021/07/15 03:18:40;;;;;;;11.60;8.50;;;33.60;53.20;;;;;;4995122;28;20027;-72
2021/07/15 03:21:06;;;;;;;14.15;8.35;;;34.00;51.60;;;;;;4995172;28;20476;-72
2021/07/15 03:23:34;;;;;;;14.75;9.43;;;34.40;50.80;;;;;;4995269;28;20041;-72
2021/07/15 03:26:01;;;;;;;16.20;8.05;;;34.80;50.00;;;;;;4995290;28;20053;-72
2021/07/15 03:28:31;;;;;;;18.05;8.32;;;35.20;49.20;;;;;;4995098;28;20034;-72
2021/07/15 03:31:06;;;;;;;19.23;8.37;;;35.60;48.50;;;;;;4995079;28;20026;-72
2021/07/15 03:33:34;;;;;;;14.02;7.93;;;36.00;47.70;;;;;;5010285;28;20034;-72
2021/07/15 03:36:06;;;;;;;15.88;8.18;;;36.30;47.20;;;;;;4994990;28;20033;-71
2021/07/15 03:38:33;;;;;;;17.63;8.13;;;36.60;46.40;;;;;;4994784;28;20036;-71
2021/07/15 03:41:04;;;;;;;17.08;8.02;;;37.10;46.10;;;;;;4994821;28;20056;-72
2021/07/15 03:43:32;;;;;;;12.50;7.88;;;37.50;45.30;;;;;;4977541;28;20058;-72
2021/07/15 03:46:00;;;;;;;12.27;7.75;;;37.80;44.80;;;;;;4994172;28;20018;-72
2021/07/15 03:48:27;;;;;;;12.70;8.13;;;38.20;44.30;;;;;;5009822;28;20026;-72
2021/07/15 03:50:58;;;;;;;11.60;7.72;;;38.50;43.70;;;;;;4994579;28;20073;-72
2021/07/15 03:53:26;;;;;;;17.35;8.00;;;38.80;43.20;;;;;;5009519;28;20069;-71
2021/07/15 03:55:54;;;;;;;12.68;7.43;;;39.10;42.80;;;;;;4994488;28;20030;-71
2021/07/15 03:58:21;;;;;;;13.02;8.25;;;39.40;42.30;;;;;;5009492;28;20026;-72
2021/07/15 04:00:49;;;;;;;12.48;8.10;;;39.80;42.00;;;;;;4994270;28;20092;-71
2021/07/15 04:03:19;;;;;;;15.57;8.55;;;40.10;41.50;;;;;;4994113;28;20014;-71
2021/07/15 04:05:45;;;;;;;10.95;7.97;;;40.50;40.90;;;;;;4994722;28;20019;-71
2021/07/15 04:08:12;;;;;;;11.60;7.80;;;40.80;40.60;;;;;;4994145;28;20037;-71
2021/07/15 04:10:40;;;;;;;17.65;8.40;;;41.20;40.10;;;;;;4994232;28;20019;-72
2021/07/15 04:13:07;;;;;;;13.50;7.32;;;41.60;39.70;;;;;;4994548;28;20026;-72
2021/07/15 04:16:25;;;;;;;12.27;7.40;;;41.90;39.30;;;;;;4994058;28;20141;-72
2021/07/15 04:18:55;;;;;;;11.73;7.85;;;42.30;38.60;;;;;;5009135;28;20077;-71
2021/07/15 04:21:21;;;;;;;;;;;42.60;38.50;;;;;;4994325;28;20031;-72
2021/07/15 04:23:50;;;;;;;18.20;8.63;;;43.00;39.10;;;;;;4993949;28;19906;-72
2021/07/15 04:26:17;;;;;;;11.73;7.65;;;43.40;38.50;;;;;;4993497;28;20026;-71
2021/07/15 04:28:44;;;;;;;10.82;7.25;;;43.80;38.10;;;;;;4993691;28;20134;-71
2021/07/15 04:31:25;;;;;;;10.10;7.32;;;44.00;37.30;;;;;;4993691;28;20380;-72
2021/07/15 04:33:51;;;;;;;18.98;8.25;;;44.20;36.80;;;;;;4993703;28;20468;-72
2021/07/15 04:36:18;;;;;;;16.15;8.38;;;44.40;36.90;;;;;;4993612;28;20018;-71
2021/07/15 04:38:44;;;;;;;14.95;7.00;;;44.60;36.70;;;;;;4993547;28;20383;-71
2021/07/15 04:41:10;;;;;;;11.48;8.18;;;44.80;36.40;;;;;;4993461;28;20037;-71
2021/07/15 04:43:38;;;;;;;15.23;6.88;;;45.00;36.30;;;;;;4993493;28;20472;-72
2021/07/15 04:46:06;;;;;;;18.73;8.55;;;45.30;35.90;;;;;;4993118;28;20563;-72
2021/07/15 04:48:32;;;;;;;13.40;7.55;;;45.60;36.00;;;;;;4993174;28;20057;-72
2021/07/15 04:50:58;;;;;;;15.73;7.45;;;45.70;35.70;;;;;;5008142;28;20050;-72
2021/07/15 04:53:24;;;;;;;12.43;7.03;;;45.90;35.40;;;;;;4993161;28;20033;-72
2021/07/15 04:55:56;;;;;;;13.15;7.57;;;46.20;35.20;;;;;;4992426;28;20526;-72
2021/07/15 04:58:23;;;;;;;14.43;7.60;;;46.40;35.00;;;;;;5007546;28;20476;-72
2021/07/15 05:00:49;;;;;;;22.17;7.45;;;46.60;35.10;;;;;;4992787;28;20022;-71
2021/07/15 05:03:33;;;;;;;13.88;6.80;;;46.80;34.10;;;;;;4992485;28;20026;-71
2021/07/15 05:06:00;;;;;;;13.80;6.70;;;47.00;33.50;;;;;;4992577;28;20105;-70
2021/07/15 05:08:26;;;;;;;14.82;5.80;;;47.10;33.20;;;;;;4992887;28;20026;-71
2021/07/15 05:10:52;;;;;;;8.90;6.15;;;47.30;32.80;;;;;;4992654;28;20416;-71
2021/07/15 05:13:18;;;;;;;9.40;6.07;;;47.30;32.90;;;;;;4992619;28;20037;-71
2021/07/15 05:15:46;;;;;;;16.67;6.65;;;47.50;33.00;;;;;;4992889;28;20770;-72
2021/07/15 05:18:12;;;;;;;10.52;6.70;;;47.80;33.00;;;;;;4992754;28;20527;-72
2021/07/15 05:20:38;;;;;;;17.77;7.30;;;48.00;33.00;;;;;;4992514;28;20026;-72
2021/07/15 05:23:04;;;;;;;13.50;5.93;;;48.10;33.00;;;;;;4992239;28;20022;-72
2021/07/15 05:25:29;;;;;;;12.25;6.07;;;48.40;32.90;;;;;;4992429;28;20026;-72
2021/07/15 05:27:55;;;;;;;8.75;5.45;;;48.50;32.40;;;;;;4992424;28;20463;-70
2021/07/15 05:30:21;;;;;;;16.17;6.03;;;48.70;31.90;;;;;;4992303;28;20069;-73
2021/07/15 05:32:47;;;;;;;10.25;5.25;;;48.80;31.50;;;;;;4992493;28;20197;-72
2021/07/15 05:35:12;;;;;;;11.70;5.15;;;49.00;31.30;;;;;;4974708;28;20209;-72
2021/07/15 05:37:40;;;;;;;20.42;6.05;;;49.10;31.10;;;;;;5003187;28;20080;-72
2021/07/15 05:40:07;;;;;;;9.77;5.35;;;49.30;30.90;;;;;;5011713;28;20018;-72
2021/07/15 05:42:33;;;;;;;9.57;5.32;;;49.50;30.60;;;;;;5011487;28;20026;-73
2021/07/15 05:44:59;;;;;;;17.23;6.38;;;49.70;30.60;;;;;;5011455;28;20367;-72
2021/07/15 05:47:25;;;;;;;13.82;5.68;;;49.90;30.40;;;;;;5003032;28;20085;-74
2021/07/15 05:49:50;;;;;;;14.65;6.10;;;50.10;30.20;;;;;;4989836;28;20022;-73
2021/07/15 05:52:16;;;;;;;14.07;6.40;;;50.30;30.20;;;;;;4990600;28;20026;-73
2021/07/15 05:54:42;;;;;;;13.68;5.93;;;50.40;30.10;;;;;;4990472;28;20101;-72
2021/07/15 05:57:08;;;;;;;11.35;5.35;;;50.60;30.10;;;;;;4990579;28;20144;-72
2021/07/15 05:59:34;;;;;;;23.33;6.53;;;50.70;29.90;;;;;;4991005;28;20109;-72
2021/07/15 06:02:01;;;;;;;6.72;5.47;;;50.80;29.90;;;;;;4990807;28;20026;-77
2021/07/15 06:04:27;;;;;;;9.57;5.68;;;50.80;29.90;;;;;;5005685;28;20121;-78
2021/07/15 06:06:53;;;;;;;12.68;5.57;;;50.90;29.90;;;;;;4990767;28;20097;-78
2021/07/15 06:09:18;;;;;;;9.57;6.55;;;50.90;29.80;;;;;;4989813;28;20110;-77
2021/07/15 06:11:44;;;;;;;10.98;5.68;;;50.90;29.90;;;;;;4990269;28;20026;-73
2021/07/15 06:14:10;;;;;;;10.85;5.43;;;50.90;29.80;;;;;;4990553;28;20035;-72
2021/07/15 06:16:36;;;;;;;13.77;6.60;;;50.80;29.80;;;;;;4990302;28;20031;-71
2021/07/15 06:19:02;;;;;;;16.88;6.13;;;50.70;29.90;;;;;;4990345;28;20027;-73
2021/07/15 06:21:28;;;;;;;8.38;6.32;;;50.60;30.00;;;;;;4972661;28;20026;-72
2021/07/15 06:23:54;;;;;;;13.82;6.32;;;50.60;30.10;;;;;;4972803;28;20425;-72
2021/07/15 06:26:20;;;;;;;12.02;6.57;;;50.70;30.20;;;;;;4990241;28;20022;-72
2021/07/15 06:28:46;;;;;;;15.38;6.03;;;50.80;30.20;;;;;;4990046;28;20089;-72
2021/07/15 06:31:12;;;;;;;12.15;6.68;;;50.80;30.00;;;;;;4990379;28;20032;-73
2021/07/15 06:33:38;;;;;;;9.88;5.45;;;50.90;30.00;;;;;;4990175;28;20026;-72
2021/07/15 06:36:06;;;;;;;9.38;5.88;;;50.90;30.40;;;;;;4990060;28;20022;-74
2021/07/15 06:38:34;;;;;;;14.63;5.72;;;50.90;29.90;;;;;;4990151;28;20027;-73
2021/07/15 06:41:02;;;;;;;13.63;6.28;;;50.90;29.50;;;;;;4990147;28;20044;-73
2021/07/15 06:43:28;;;;;;;9.35;5.28;;;50.80;29.60;;;;;;4990299;28;20763;-73
2021/07/15 06:45:54;;;;;;;8.88;5.00;;;50.80;29.80;;;;;;4987538;28;20054;-73
2021/07/15 06:48:20;;;;;;;9.30;5.60;;;51.00;29.90;;;;;;4989812;28;20054;-73
2021/07/15 06:50:46;;;;;;;10.88;5.63;;;51.00;29.90;;;;;;4990089;28;20058;-73
2021/07/15 06:53:12;;;;;;;14.85;6.57;;;51.00;29.90;;;;;;4972383;28;20429;-73
2021/07/15 06:55:38;;;;;;;12.00;5.80;;;51.00;29.80;;;;;;4989699;28;20054;-78
2021/07/15 06:58:06;;;;;;;12.45;5.55;;;51.00;29.80;;;;;;4990402;28;20019;-77
2021/07/15 07:00:32;;;;;;;14.25;5.30;;;51.00;29.90;;;;;;4972786;28;20431;-77
2021/07/15 07:02:58;;;;;;;8.20;4.90;;;51.00;29.50;;;;;;4972795;28;20408;-77
2021/07/15 07:05:24;;;;;;;11.32;6.10;;;50.90;29.10;;;;;;4989895;28;20057;-77
2021/07/15 07:07:50;;;;;;;10.98;5.60;;;50.70;29.30;;;;;;4971893;28;20153;-77
2021/07/15 07:10:17;;;;;;;11.15;5.57;;;50.70;29.50;;;;;;4989847;28;20474;-78
2021/07/15 07:12:43;;;;;;;13.02;5.88;;;50.60;29.60;;;;;;4989746;28;20029;-78
2021/07/15 07:15:12;;;;;;;10.45;5.20;;;50.60;29.50;;;;;;5004590;28;20441;-77
2021/07/15 07:17:38;;;;;;;11.95;4.35;;;50.50;29.20;;;;;;5004643;28;20445;-77
2021/07/15 07:20:12;;;;;;;7.28;4.63;;;50.50;28.90;;;;;;4991199;28;20039;-77
2021/07/15 07:22:39;;;;;;;9.63;4.88;;;50.40;28.90;;;;;;4991589;28;20045;-76
2021/07/15 07:25:06;;;;;;;9.27;4.80;;;50.20;28.80;;;;;;4993227;28;20559;-77
2021/07/15 07:27:33;;;;;;;7.32;4.25;;;49.80;28.80;;;;;;4975607;28;20054;-77
2021/07/15 07:29:59;;;;;;;7.53;4.07;;;49.70;29.00;;;;;;4993243;28;20022;-77
2021/07/15 07:32:25;;;;;;;12.18;4.20;;;49.60;29.00;;;;;;4993203;28;20025;-77
2021/07/15 07:34:51;;;;;;;12.80;4.45;;;49.50;28.80;;;;;;4993150;28;20478;-77
2021/07/15 07:37:17;;;;;;;6.47;3.60;;;49.50;28.70;;;;;;4992254;28;20030;-77
2021/07/15 07:39:43;;;;;;;12.85;3.80;;;49.40;28.50;;;;;;4992991;28;20369;-76
2021/07/15 07:42:08;;;;;;;6.80;3.50;;;49.30;28.50;;;;;;4992936;28;20084;-78
2021/07/15 07:44:34;;;;;;;6.85;3.58;;;49.20;28.30;;;;;;4990457;28;20014;-78
2021/07/15 07:47:00;;;;;;;8.45;3.63;;;49.10;28.30;;;;;;4992975;28;20027;-80
2021/07/15 07:49:29;;;;;;;4.22;3.50;;;48.80;28.50;;;;;;4993115;28;20128;-78
2021/07/15 07:51:55;;;;;;;7.30;3.70;;;48.70;28.60;;;;;;4990388;28;20464;-78
2021/07/15 07:54:21;;;;;;;8.88;3.58;;;48.50;28.50;;;;;;4992740;28;20034;-77
2021/07/15 07:56:47;;;;;;;7.10;3.10;;;48.30;28.50;;;;;;4993009;28;20097;-78
2021/07/15 07:59:12;;;;;;;5.18;3.28;;;48.10;28.40;;;;;;4992736;28;20054;-77
2021/07/15 08:01:39;;;;;;;5.90;3.03;;;47.90;28.60;;;;;;4992976;28;20127;-77
2021/07/15 08:04:05;;;;;;;7.82;3.20;;;47.70;28.20;;;;;;4992777;28;20011;-77
2021/07/15 08:06:34;;;;;;;12.95;3.80;;;47.20;27.90;;;;;;4992381;28;20030;-77
2021/07/15 08:09:16;;;;;;;5.35;3.22;;;46.60;28.50;;;;;;4992701;28;20018;-77
2021/07/15 08:11:47;;;;;;;5.78;3.10;;;46.10;28.90;;;;;;4991000;28;20026;-76
2021/07/15 08:14:13;;;;;;;15.90;3.50;;;45.70;29.00;;;;;;4976009;28;20026;-75
2021/07/15 08:16:39;;;;;;;7.03;3.50;;;45.40;29.10;;;;;;4993727;28;20029;-77
2021/07/15 08:19:05;;;;;;;16.98;4.18;;;45.00;29.40;;;;;;4993394;28;20065;-77
2021/07/15 08:21:31;;;;;;;7.40;3.90;;;44.60;29.40;;;;;;4975897;28;20394;-75
2021/07/15 08:23:57;;;;;;;5.47;3.08;;;44.40;29.40;;;;;;4993332;28;20054;-76
2021/07/15 08:26:23;;;;;;;10.27;5.53;;;44.10;29.60;;;;;;4975837;28;20027;-76
2021/07/15 08:28:49;;;;;;;9.70;5.35;;;43.90;29.90;;;;;;4993155;28;20034;-76
2021/07/15 08:31:15;;;;;;;37.30;12.95;;;43.70;30.20;;;;;;4993427;28;20357;-76
2021/07/15 08:33:40;;;;;;;45.92;13.10;;;43.60;30.50;;;;;;4993703;28;20070;-76
2021/07/15 08:36:06;;;;;;;26.30;9.27;;;43.40;30.50;;;;;;4993451;28;20027;-76
2021/07/15 08:38:32;;;;;;;17.60;7.47;;;43.30;30.70;;;;;;4993618;28;20062;-76
2021/07/15 08:40:58;;;;;;;15.63;5.38;;;43.20;31.20;;;;;;4993135;28;20077;-75
2021/07/15 08:43:24;;;;;;;23.83;6.82;;;42.90;30.90;;;;;;4993008;28;20025;-75
2021/07/15 08:45:50;;;;;;;22.50;6.25;;;42.80;31.10;;;;;;4992496;28;20027;-76
2021/07/15 08:48:18;;;;;;;21.40;6.45;;;42.60;30.80;;;;;;4992350;28;20053;-76
2021/07/15 08:50:44;;;;;;;26.35;7.07;;;42.50;31.20;;;;;;4992270;28;20085;-76
2021/07/15 08:53:11;;;;;;;15.82;6.07;;;42.30;31.10;;;;;;4992595;28;20442;-76
2021/07/15 08:58:17;;;;;;;18.02;6.95;;;42.00;31.40;;;;;;4992179;28;20489;-76
2021/07/15 09:00:44;;;;;;;19.33;7.85;;;41.90;31.60;;;;;;4992059;28;20026;-74
2021/07/15 09:03:11;;;;;;;24.30;6.90;;;41.80;31.80;;;;;;4992067;28;20030;-75
2021/07/15 09:05:38;;;;;;;17.80;6.65;;;41.70;32.20;;;;;;4991909;28;20026;-74
2021/07/15 09:08:05;;;;;;;15.60;4.60;;;41.60;32.10;;;;;;4991995;28;20030;-74
2021/07/15 09:10:31;;;;;;;19.15;5.13;;;41.50;31.80;;;;;;4991603;28;20054;-74
2021/07/15 09:12:58;;;;;;;23.25;6.18;;;41.30;31.90;;;;;;4991909;28;20485;-75
2021/07/15 09:15:24;;;;;;;18.48;5.90;;;41.10;32.10;;;;;;4991798;28;20436;-75
2021/07/15 09:17:50;;;;;;;27.95;7.15;;;41.00;32.60;;;;;;4991937;28;20034;-75
2021/07/15 09:20:22;;;;;;;20.35;7.88;;;40.90;32.60;;;;;;4991834;28;20022;-75
2021/07/15 09:23:03;;;;;;;19.10;8.18;;;40.80;33.10;;;;;;4991997;28;20033;-73
2021/07/15 09:25:49;;;;;;;19.70;7.20;;;40.80;33.60;;;;;;4992033;28;20029;-73
2021/07/15 09:28:17;;;;;;;26.45;9.52;;;40.60;33.40;;;;;;4991672;28;20026;-78
2021/07/15 09:30:44;;;;;;;30.08;8.93;;;40.50;33.60;;;;;;4991504;28;20097;-72
2021/07/15 09:33:12;;;;;;;21.60;7.00;;;40.40;33.30;;;;;;4991601;28;20065;-74
2021/07/15 09:35:40;;;;;;;11.45;5.10;;;40.40;33.50;;;;;;4991380;28;20037;-74
2021/07/15 09:38:37;;;;;;;17.85;5.75;;;40.30;33.80;;;;;;4974245;28;20093;-70
2021/07/15 09:41:04;;;;;;;26.83;6.65;;;40.20;34.10;;;;;;4973648;28;20337;-74
2021/07/15 09:43:34;;;;;;;15.13;5.50;;;40.20;34.10;;;;;;4991183;28;20377;-73
2021/07/15 09:46:12;;;;;;;14.95;6.47;;;40.00;34.10;;;;;;4991814;28;20038;-73
2021/07/15 09:48:39;;;;;;;19.23;6.10;;;39.80;34.30;;;;;;4991668;28;20097;-73
2021/07/15 09:51:08;;;;;;;23.77;6.53;;;39.80;34.50;;;;;;4991393;28;20108;-74
2021/07/15 09:53:34;;;;;;;15.60;5.75;;;39.60;34.50;;;;;;4973995;28;20030;-73
2021/07/15 09:56:08;;;;;;;15.30;4.97;;;39.60;34.90;;;;;;4991556;28;20049;-74
2021/07/15 09:58:41;;;;;;;18.83;4.60;;;39.40;35.10;;;;;;4990301;28;20026;-74
2021/07/15 10:01:12;;;;;;;8.65;4.20;;;39.30;35.80;;;;;;4991432;28;20064;-74
2021/07/15 10:03:43;;;;;;;8.82;4.10;;;39.30;36.60;;;;;;4991077;28;20026;-73
2021/07/15 10:06:10;;;;;;;13.10;4.40;;;39.30;36.20;;;;;;4991461;28;20483;-73
2021/07/15 10:08:38;;;;;;;15.50;4.57;;;39.20;35.90;;;;;;4991383;28;20026;-74
2021/07/15 10:11:18;;;;;;;11.70;4.32;;;39.20;35.70;;;;;;4991000;28;20038;-73
2021/07/15 10:13:46;;;;;;;14.50;4.45;;;39.10;35.60;;;;;;4990671;28;20035;-73
2021/07/15 10:16:12;;;;;;;7.75;3.70;;;39.00;35.70;;;;;;4990835;28;20034;-73
2021/07/15 10:18:41;;;;;;;13.70;4.78;;;39.00;35.70;;;;;;4990867;28;20496;-74
2021/07/15 10:21:08;;;;;;;20.48;5.35;;;38.90;36.20;;;;;;4990847;28;20019;-74
2021/07/15 10:23:37;;;;;;;16.02;5.43;;;38.90;36.30;;;;;;4990938;28;20033;-74
2021/07/15 10:26:05;;;;;;;10.07;4.70;;;38.80;36.10;;;;;;4991564;28;20081;-74
2021/07/15 10:28:31;;;;;;;8.68;4.30;;;38.80;36.30;;;;;;5006537;28;20365;-73
2021/07/15 10:31:03;;;;;;;13.75;5.50;;;38.80;36.50;;;;;;4974105;28;20026;-73
2021/07/15 10:33:30;;;;;;;6.57;4.47;;;38.70;36.70;;;;;;4991400;28;20361;-74
2021/07/15 10:35:58;;;;;;;18.75;5.47;;;38.80;36.50;;;;;;4991457;28;20101;-72
2021/07/15 10:38:28;;;;;;;10.52;5.07;;;38.60;36.90;;;;;;4991778;28;20023;-74
2021/07/15 10:40:55;;;;;;;12.53;4.30;;;38.50;37.50;;;;;;4991660;28;20051;-74
2021/07/15 10:43:21;;;;;;;12.43;4.80;;;38.40;36.90;;;;;;4974124;28;20085;-74
2021/07/15 10:45:47;;;;;;;11.98;4.72;;;38.30;37.00;;;;;;4991753;28;20026;-73
2021/07/15 10:48:15;;;;;;;13.25;5.32;;;38.30;37.00;;;;;;4991823;28;20126;-74
2021/07/15 10:50:43;;;;;;;13.13;5.30;;;38.20;37.20;;;;;;4991636;28;20050;-73
2021/07/15 10:53:09;;;;;;;12.00;4.97;;;38.10;37.70;;;;;;4991711;28;20022;-73
2021/07/15 10:55:36;;;;;;;9.50;4.80;;;38.00;38.00;;;;;;4993734;28;20060;-74
2021/07/15 10:58:03;;;;;;;16.60;5.07;;;37.90;38.40;;;;;;5010262;28;20761;-73
2021/07/15 11:00:29;;;;;;;11.50;4.72;;;37.90;38.80;;;;;;4995348;28;20085;-73
2021/07/15 11:03:12;;;;;;;14.27;4.30;;;37.90;38.90;;;;;;4994999;28;20088;-72
2021/07/15 11:05:54;;;;;;;9.48;4.22;;;37.90;38.50;;;;;;4994985;28;20027;-73
2021/07/15 11:08:48;;;;;;;7.60;4.35;;;37.80;38.20;;;;;;4995263;28;20361;-72
2021/07/15 11:11:15;;;;;;;8.55;3.60;;;37.70;38.40;;;;;;4994751;28;20029;-73
2021/07/15 11:13:44;;;;;;;7.70;4.50;;;37.60;38.10;;;;;;4995007;28;20053;-73
2021/07/15 11:16:10;;;;;;;15.48;4.57;;;37.60;38.40;;;;;;4994704;28;20048;-73
2021/07/15 11:19:00;;;;;;;10.38;4.25;;;37.50;38.20;;;;;;4994771;28;20029;-74
2021/07/15 11:21:26;;;;;;;15.82;4.22;;;37.50;38.50;;;;;;4994993;28;20481;-74
2021/07/15 11:24:20;;;;;;;8.07;4.07;;;37.50;38.70;;;;;;4994718;28;20031;-77
2021/07/15 11:26:46;;;;;;;6.07;3.83;;;37.40;38.60;;;;;;4994841;28;20030;-75
2021/07/15 11:29:13;;;;;;;4.55;3.80;;;37.40;38.40;;;;;;4994760;28;20038;-75
2021/07/15 11:31:41;;;;;;;14.57;4.55;;;37.40;38.60;;;;;;4994906;28;20125;-75
2021/07/15 11:34:07;;;;;;;11.50;4.00;;;37.40;39.00;;;;;;4994418;28;20033;-74
2021/07/15 11:36:33;;;;;;;8.13;4.10;;;37.30;38.70;;;;;;4994720;28;20034;-74
2021/07/15 11:39:03;;;;;;;7.13;3.97;;;37.30;38.50;;;;;;4976027;28;20786;-74
2021/07/15 11:41:43;;;;;;;8.23;3.92;;;37.20;38.70;;;;;;4993678;28;20018;-73
2021/07/15 11:44:09;;;;;;;8.25;4.82;;;37.10;38.50;;;;;;4994632;28;20073;-74
2021/07/15 11:46:36;;;;;;;7.45;4.53;;;36.90;38.70;;;;;;4995355;28;20069;-76
2021/07/15 11:49:07;;;;;;;9.52;4.43;;;36.90;38.90;;;;;;4994525;28;20066;-73
2021/07/15 11:51:48;;;;;;;8.95;4.70;;;36.80;38.70;;;;;;4993759;28;20046;-74
2021/07/15 11:54:33;;;;;;;5.93;4.95;;;36.80;38.80;;;;;;4993781;28;20084;-74
2021/07/15 11:57:23;;;;;;;9.45;5.22;;;36.70;38.90;;;;;;4993397;28;20030;-74
2021/07/15 12:00:11;;;;;;;8.13;5.10;;;36.50;38.80;;;;;;4993524;28;20025;-73
2021/07/15 12:02:54;;;;;;;8.52;4.50;;;36.30;39.10;;;;;;4993350;28;20015;-76
2021/07/15 12:05:34;;;;;;;5.72;4.40;;;36.20;39.30;;;;;;4993293;28;20312;-75
2021/07/15 12:08:16;;;;;;;6.53;5.25;;;36.10;38.90;;;;;;4975883;28;20033;-76
2021/07/15 12:10:44;;;;;;;10.20;5.05;;;35.80;39.10;;;;;;4993679;28;20040;-75
2021/07/15 12:13:12;;;;;;;12.80;5.22;;;35.70;39.20;;;;;;5008715;28;20026;-77
2021/07/15 12:15:40;;;;;;;9.32;4.68;;;35.60;39.40;;;;;;4993703;28;20105;-75
2021/07/15 12:18:19;;;;;;;8.75;5.45;;;35.40;39.80;;;;;;4993630;28;20393;-75
2021/07/15 12:20:53;;;;;;;13.45;5.82;;;35.40;40.10;;;;;;4993287;28;20022;-75
2021/07/15 12:23:32;;;;;;;6.80;5.05;;;35.30;40.00;;;;;;5008089;28;20077;-75
2021/07/15 12:25:59;;;;;;;9.55;5.10;;;35.10;40.10;;;;;;4993407;28;20034;-75
2021/07/15 12:28:29;;;;;;;8.15;5.13;;;35.00;40.40;;;;;;4975421;28;20046;-76
2021/07/15 12:30:58;;;;;;;7.28;4.45;;;34.90;40.50;;;;;;4992855;28;20033;-75
2021/07/15 12:33:36;;;;;;;11.70;5.07;;;34.70;40.60;;;;;;4975577;28;20061;-79
2021/07/15 12:36:16;;;;;;;9.25;5.00;;;34.60;40.80;;;;;;4992896;28;20034;-74
2021/07/15 12:38:43;;;;;;;10.07;5.43;;;34.60;41.10;;;;;;4992683;28;20033;-74
2021/07/15 12:41:11;;;;;;;8.90;4.47;;;34.50;41.20;;;;;;4992881;28;20026;-75
2021/07/15 12:43:59;;;;;;;6.47;4.88;;;34.50;41.30;;;;;;4992895;28;20037;-74
2021/07/15 12:46:31;;;;;;;12.63;4.60;;;34.40;41.40;;;;;;4992524;28;20049;-74
2021/07/15 12:48:59;;;;;;;7.07;4.68;;;34.30;41.50;;;;;;4975499;28;20498;-75
2021/07/15 12:51:46;;;;;;;16.70;5.50;;;34.10;41.80;;;;;;4992694;28;20061;-75